sensor_id;sensor_type;location;lat;lon;timestamp;P1;durP1;ratioP1;P2;durP2;ratioP2
74383;SDS011;62824;52.994;-3.936;2023-08-06T00:00:44;4.45;;;1.80;;
74383;SDS011;62824;52.994;-3.936;2023-08-06T00:03:10;3.65;;;1.98;;
74383;SDS011;62824;52.994;-3.936;2023-08-06T00:05:36;4.10;;;1.80;;
74383;SDS011;62824;52.994;-3.936;2023-08-06T00:08:02;4.18;;;1.85;;
74383;SDS011;62824;52.994;-3.936;2023-08-06T00:10:27;3.00;;;1.52;;
74383;SDS011;62824;52.994;-3.936;2023-08-06T00:12:53;4.15;;;1.88;;
74383;SDS011;62824;52.994;-3.936;2023-08-06T00:15:19;3.95;;;1.77;;
74383;SDS011;62824;52.994;-3.936;2023-08-06T00:17:45;4.35;;;1.77;;
74383;SDS011;62824;52.994;-3.936;2023-08-06T00:20:11;3.05;;;1.50;;
74383;SDS011;62824;52.994;-3.936;2023-08-06T00:22:37;5.03;;;1.88;;
74383;SDS011;62824;52.994;-3.936;2023-08-06T00:25:03;4.10;;;1.50;;
74383;SDS011;62824;52.994;-3.936;2023-08-06T00:27:29;2.80;;;1.52;;
74383;SDS011;62824;52.994;-3.936;2023-08-06T00:29:55;3.78;;;1.80;;
74383;SDS011;62824;52.994;-3.936;2023-08-06T00:32:21;4.60;;;1.85;;
74383;SDS011;62824;52.994;-3.936;2023-08-06T00:34:47;4.18;;;2.20;;
74383;SDS011;62824;52.994;-3.936;2023-08-06T00:37:16;5.15;;;3.05;;
74383;SDS011;62824;52.994;-3.936;2023-08-06T00:39:43;4.22;;;2.50;;
74383;SDS011;62824;52.994;-3.936;2023-08-06T00:42:09;6.15;;;2.00;;
74383;SDS011;62824;52.994;-3.936;2023-08-06T00:44:36;3.22;;;1.92;;
74383;SDS011;62824;52.994;-3.936;2023-08-06T00:47:02;5.05;;;1.75;;
74383;SDS011;62824;52.994;-3.936;2023-08-06T00:49:28;2.63;;;1.52;;
74383;SDS011;62824;52.994;-3.936;2023-08-06T00:51:54;3.35;;;2.17;;
74383;SDS011;62824;52.994;-3.936;2023-08-06T00:54:21;3.95;;;1.58;;
74383;SDS011;62824;52.994;-3.936;2023-08-06T00:56:47;2.47;;;1.60;;
74383;SDS011;62824;52.994;-3.936;2023-08-06T00:59:13;4.05;;;1.40;;
74383;SDS011;62824;52.994;-3.936;2023-08-06T01:01:39;5.65;;;1.63;;
74383;SDS011;62824;52.994;-3.936;2023-08-06T01:04:05;4.05;;;1.80;;
74383;SDS011;62824;52.994;-3.936;2023-08-06T01:10:01;3.33;;;1.60;;
74383;SDS011;62824;52.994;-3.936;2023-08-06T01:12:45;3.22;;;1.70;;
74383;SDS011;62824;52.994;-3.936;2023-08-06T01:15:21;3.45;;;1.42;;
74383;SDS011;62824;52.994;-3.936;2023-08-06T01:17:51;4.80;;;1.73;;
74383;SDS011;62824;52.994;-3.936;2023-08-06T01:20:17;3.17;;;1.60;;
74383;SDS011;62824;52.994;-3.936;2023-08-06T01:22:43;3.33;;;1.50;;
74383;SDS011;62824;52.994;-3.936;2023-08-06T01:25:09;4.05;;;1.73;;
74383;SDS011;62824;52.994;-3.936;2023-08-06T01:27:41;4.15;;;1.90;;
74383;SDS011;62824;52.994;-3.936;2023-08-06T01:30:13;3.10;;;1.90;;
74383;SDS011;62824;52.994;-3.936;2023-08-06T01:32:43;3.90;;;1.80;;
74383;SDS011;62824;52.994;-3.936;2023-08-06T01:35:11;3.72;;;1.52;;
74383;SDS011;62824;52.994;-3.936;2023-08-06T01:37:40;4.50;;;1.80;;
74383;SDS011;62824;52.994;-3.936;2023-08-06T01:40:10;3.00;;;1.40;;
74383;SDS011;62824;52.994;-3.936;2023-08-06T01:42:39;3.67;;;2.22;;
74383;SDS011;62824;52.994;-3.936;2023-08-06T01:45:08;6.50;;;1.75;;
74383;SDS011;62824;52.994;-3.936;2023-08-06T01:47:35;4.32;;;1.50;;
74383;SDS011;62824;52.994;-3.936;2023-08-06T01:50:01;4.22;;;2.17;;
74383;SDS011;62824;52.994;-3.936;2023-08-06T01:52:27;2.88;;;1.80;;
74383;SDS011;62824;52.994;-3.936;2023-08-06T01:54:53;3.25;;;1.73;;
74383;SDS011;62824;52.994;-3.936;2023-08-06T01:57:19;2.83;;;1.23;;
74383;SDS011;62824;52.994;-3.936;2023-08-06T01:59:45;3.78;;;1.50;;
74383;SDS011;62824;52.994;-3.936;2023-08-06T02:02:11;3.13;;;1.55;;
74383;SDS011;62824;52.994;-3.936;2023-08-06T02:04:37;2.97;;;1.65;;
74383;SDS011;62824;52.994;-3.936;2023-08-06T02:07:03;2.08;;;1.38;;
74383;SDS011;62824;52.994;-3.936;2023-08-06T02:09:29;4.88;;;2.00;;
74383;SDS011;62824;52.994;-3.936;2023-08-06T02:11:55;3.10;;;1.98;;
74383;SDS011;62824;52.994;-3.936;2023-08-06T02:14:20;5.72;;;1.60;;
74383;SDS011;62824;52.994;-3.936;2023-08-06T02:16:46;3.97;;;2.00;;
74383;SDS011;62824;52.994;-3.936;2023-08-06T02:19:12;4.82;;;1.42;;
74383;SDS011;62824;52.994;-3.936;2023-08-06T02:21:38;2.50;;;1.35;;
74383;SDS011;62824;52.994;-3.936;2023-08-06T02:24:04;4.07;;;1.75;;
74383;SDS011;62824;52.994;-3.936;2023-08-06T02:26:29;2.90;;;1.73;;
74383;SDS011;62824;52.994;-3.936;2023-08-06T02:28:55;3.85;;;1.70;;
74383;SDS011;62824;52.994;-3.936;2023-08-06T02:31:21;3.47;;;1.75;;
74383;SDS011;62824;52.994;-3.936;2023-08-06T02:33:47;2.78;;;1.60;;
74383;SDS011;62824;52.994;-3.936;2023-08-06T02:36:13;4.35;;;1.85;;
74383;SDS011;62824;52.994;-3.936;2023-08-06T02:38:38;2.20;;;1.50;;
74383;SDS011;62824;52.994;-3.936;2023-08-06T02:41:04;4.05;;;2.00;;
74383;SDS011;62824;52.994;-3.936;2023-08-06T02:43:30;3.97;;;1.48;;
74383;SDS011;62824;52.994;-3.936;2023-08-06T02:45:57;4.78;;;1.60;;
74383;SDS011;62824;52.994;-3.936;2023-08-06T02:48:23;3.20;;;1.63;;
74383;SDS011;62824;52.994;-3.936;2023-08-06T02:50:49;3.90;;;1.42;;
74383;SDS011;62824;52.994;-3.936;2023-08-06T02:53:14;2.95;;;1.50;;
74383;SDS011;62824;52.994;-3.936;2023-08-06T02:55:45;3.05;;;1.40;;
74383;SDS011;62824;52.994;-3.936;2023-08-06T02:58:13;7.10;;;2.00;;
74383;SDS011;62824;52.994;-3.936;2023-08-06T03:00:39;3.15;;;1.50;;
74383;SDS011;62824;52.994;-3.936;2023-08-06T03:03:05;2.58;;;1.55;;
74383;SDS011;62824;52.994;-3.936;2023-08-06T03:05:30;2.67;;;1.52;;
74383;SDS011;62824;52.994;-3.936;2023-08-06T03:07:56;3.13;;;1.77;;
74383;SDS011;62824;52.994;-3.936;2023-08-06T03:10:22;3.60;;;1.60;;
74383;SDS011;62824;52.994;-3.936;2023-08-06T03:12:48;2.95;;;1.50;;
74383;SDS011;62824;52.994;-3.936;2023-08-06T03:15:13;2.45;;;1.40;;
74383;SDS011;62824;52.994;-3.936;2023-08-06T03:17:39;2.80;;;1.30;;
74383;SDS011;62824;52.994;-3.936;2023-08-06T03:20:05;3.22;;;1.58;;
74383;SDS011;62824;52.994;-3.936;2023-08-06T03:22:31;2.00;;;1.38;;
74383;SDS011;62824;52.994;-3.936;2023-08-06T03:24:57;3.45;;;1.70;;
74383;SDS011;62824;52.994;-3.936;2023-08-06T03:27:23;4.07;;;1.52;;
74383;SDS011;62824;52.994;-3.936;2023-08-06T03:29:49;2.63;;;1.60;;
74383;SDS011;62824;52.994;-3.936;2023-08-06T03:32:15;2.72;;;1.67;;
74383;SDS011;62824;52.994;-3.936;2023-08-06T03:34:41;4.28;;;1.45;;
74383;SDS011;62824;52.994;-3.936;2023-08-06T03:37:07;2.55;;;1.30;;
74383;SDS011;62824;52.994;-3.936;2023-08-06T03:39:33;6.35;;;1.65;;
74383;SDS011;62824;52.994;-3.936;2023-08-06T03:41:58;3.00;;;1.42;;
74383;SDS011;62824;52.994;-3.936;2023-08-06T03:44:24;4.97;;;1.92;;
74383;SDS011;62824;52.994;-3.936;2023-08-06T03:46:52;3.22;;;1.60;;
74383;SDS011;62824;52.994;-3.936;2023-08-06T03:49:17;2.83;;;1.52;;
74383;SDS011;62824;52.994;-3.936;2023-08-06T03:51:43;5.10;;;1.83;;
74383;SDS011;62824;52.994;-3.936;2023-08-06T03:54:09;2.97;;;1.60;;
74383;SDS011;62824;52.994;-3.936;2023-08-06T03:56:35;3.28;;;1.77;;
74383;SDS011;62824;52.994;-3.936;2023-08-06T03:59:01;3.10;;;1.52;;
74383;SDS011;62824;52.994;-3.936;2023-08-06T04:01:26;2.33;;;1.30;;
74383;SDS011;62824;52.994;-3.936;2023-08-06T04:03:52;3.20;;;1.70;;
74383;SDS011;62824;52.994;-3.936;2023-08-06T04:06:18;3.55;;;1.48;;
74383;SDS011;62824;52.994;-3.936;2023-08-06T04:08:44;3.08;;;1.40;;
74383;SDS011;62824;52.994;-3.936;2023-08-06T04:11:09;5.45;;;1.80;;
74383;SDS011;62824;52.994;-3.936;2023-08-06T04:13:35;3.55;;;1.70;;
74383;SDS011;62824;52.994;-3.936;2023-08-06T04:16:01;2.83;;;1.40;;
74383;SDS011;62824;52.994;-3.936;2023-08-06T04:18:28;3.63;;;1.58;;
74383;SDS011;62824;52.994;-3.936;2023-08-06T04:20:53;2.35;;;1.63;;
74383;SDS011;62824;52.994;-3.936;2023-08-06T04:23:20;3.05;;;1.75;;
74383;SDS011;62824;52.994;-3.936;2023-08-06T04:25:46;2.63;;;1.67;;
74383;SDS011;62824;52.994;-3.936;2023-08-06T04:28:12;4.32;;;1.50;;
74383;SDS011;62824;52.994;-3.936;2023-08-06T04:30:37;3.55;;;1.40;;
74383;SDS011;62824;52.994;-3.936;2023-08-06T04:33:03;3.22;;;1.50;;
74383;SDS011;62824;52.994;-3.936;2023-08-06T04:35:29;2.80;;;1.25;;
74383;SDS011;62824;52.994;-3.936;2023-08-06T04:37:55;3.33;;;1.83;;
74383;SDS011;62824;52.994;-3.936;2023-08-06T04:40:20;3.05;;;1.65;;
74383;SDS011;62824;52.994;-3.936;2023-08-06T04:42:46;2.70;;;1.38;;
74383;SDS011;62824;52.994;-3.936;2023-08-06T04:45:12;3.88;;;1.50;;
74383;SDS011;62824;52.994;-3.936;2023-08-06T04:47:38;2.85;;;1.40;;
74383;SDS011;62824;52.994;-3.936;2023-08-06T04:50:04;3.67;;;1.70;;
74383;SDS011;62824;52.994;-3.936;2023-08-06T04:52:30;2.90;;;1.65;;
74383;SDS011;62824;52.994;-3.936;2023-08-06T04:54:57;5.03;;;1.80;;
74383;SDS011;62824;52.994;-3.936;2023-08-06T04:57:23;4.18;;;1.60;;
74383;SDS011;62824;52.994;-3.936;2023-08-06T04:59:49;3.65;;;1.42;;
74383;SDS011;62824;52.994;-3.936;2023-08-06T05:02:15;3.60;;;1.80;;
74383;SDS011;62824;52.994;-3.936;2023-08-06T05:04:41;2.35;;;1.38;;
74383;SDS011;62824;52.994;-3.936;2023-08-06T05:07:06;2.47;;;1.40;;
74383;SDS011;62824;52.994;-3.936;2023-08-06T05:09:32;3.92;;;1.75;;
74383;SDS011;62824;52.994;-3.936;2023-08-06T05:12:00;3.10;;;1.65;;
74383;SDS011;62824;52.994;-3.936;2023-08-06T05:14:27;3.30;;;1.42;;
74383;SDS011;62824;52.994;-3.936;2023-08-06T05:16:53;3.03;;;1.70;;
74383;SDS011;62824;52.994;-3.936;2023-08-06T05:19:18;2.15;;;1.33;;
74383;SDS011;62824;52.994;-3.936;2023-08-06T05:21:44;2.90;;;1.33;;
74383;SDS011;62824;52.994;-3.936;2023-08-06T05:24:10;1.55;;;1.20;;
74383;SDS011;62824;52.994;-3.936;2023-08-06T05:26:37;3.55;;;1.30;;
74383;SDS011;62824;52.994;-3.936;2023-08-06T05:29:02;3.13;;;1.45;;
74383;SDS011;62824;52.994;-3.936;2023-08-06T05:31:28;3.75;;;1.58;;
74383;SDS011;62824;52.994;-3.936;2023-08-06T05:33:54;3.72;;;1.50;;
74383;SDS011;62824;52.994;-3.936;2023-08-06T05:36:20;2.33;;;1.50;;
74383;SDS011;62824;52.994;-3.936;2023-08-06T05:38:46;3.20;;;1.63;;
74383;SDS011;62824;52.994;-3.936;2023-08-06T05:41:12;2.38;;;1.50;;
74383;SDS011;62824;52.994;-3.936;2023-08-06T05:43:38;4.32;;;1.60;;
74383;SDS011;62824;52.994;-3.936;2023-08-06T05:46:04;4.18;;;1.30;;
74383;SDS011;62824;52.994;-3.936;2023-08-06T05:48:30;4.40;;;1.42;;
74383;SDS011;62824;52.994;-3.936;2023-08-06T05:50:57;4.72;;;1.30;;
74383;SDS011;62824;52.994;-3.936;2023-08-06T05:53:23;2.72;;;1.50;;
74383;SDS011;62824;52.994;-3.936;2023-08-06T05:55:49;2.80;;;1.42;;
74383;SDS011;62824;52.994;-3.936;2023-08-06T05:58:15;2.17;;;1.17;;
74383;SDS011;62824;52.994;-3.936;2023-08-06T06:00:41;2.97;;;1.27;;
74383;SDS011;62824;52.994;-3.936;2023-08-06T06:03:07;2.65;;;1.23;;
74383;SDS011;62824;52.994;-3.936;2023-08-06T06:05:33;4.25;;;1.70;;
74383;SDS011;62824;52.994;-3.936;2023-08-06T06:07:59;2.75;;;1.20;;
74383;SDS011;62824;52.994;-3.936;2023-08-06T06:10:24;1.70;;;1.20;;
74383;SDS011;62824;52.994;-3.936;2023-08-06T06:12:50;2.47;;;1.10;;
74383;SDS011;62824;52.994;-3.936;2023-08-06T06:15:16;3.80;;;1.33;;
74383;SDS011;62824;52.994;-3.936;2023-08-06T06:17:42;2.50;;;1.25;;
74383;SDS011;62824;52.994;-3.936;2023-08-06T06:20:07;1.35;;;1.00;;
74383;SDS011;62824;52.994;-3.936;2023-08-06T06:22:34;1.75;;;1.10;;
74383;SDS011;62824;52.994;-3.936;2023-08-06T06:24:59;1.33;;;1.00;;
74383;SDS011;62824;52.994;-3.936;2023-08-06T06:27:25;1.85;;;1.20;;
74383;SDS011;62824;52.994;-3.936;2023-08-06T06:29:51;3.38;;;1.27;;
74383;SDS011;62824;52.994;-3.936;2023-08-06T06:32:17;2.33;;;1.30;;
74383;SDS011;62824;52.994;-3.936;2023-08-06T06:34:43;3.20;;;1.10;;
74383;SDS011;62824;52.994;-3.936;2023-08-06T06:37:09;2.58;;;1.13;;
74383;SDS011;62824;52.994;-3.936;2023-08-06T06:39:34;2.28;;;1.65;;
74383;SDS011;62824;52.994;-3.936;2023-08-06T06:42:00;2.72;;;1.23;;
74383;SDS011;62824;52.994;-3.936;2023-08-06T06:44:26;2.97;;;1.13;;
74383;SDS011;62824;52.994;-3.936;2023-08-06T06:46:52;2.00;;;1.20;;
74383;SDS011;62824;52.994;-3.936;2023-08-06T06:49:18;1.75;;;1.00;;
74383;SDS011;62824;52.994;-3.936;2023-08-06T06:51:43;4.30;;;1.20;;
74383;SDS011;62824;52.994;-3.936;2023-08-06T06:54:09;1.33;;;1.00;;
74383;SDS011;62824;52.994;-3.936;2023-08-06T06:56:35;2.10;;;1.13;;
74383;SDS011;62824;52.994;-3.936;2023-08-06T06:59:01;2.85;;;1.35;;
74383;SDS011;62824;52.994;-3.936;2023-08-06T07:01:26;1.77;;;1.10;;
74383;SDS011;62824;52.994;-3.936;2023-08-06T07:03:52;3.00;;;1.20;;
74383;SDS011;62824;52.994;-3.936;2023-08-06T07:06:18;2.17;;;1.10;;
74383;SDS011;62824;52.994;-3.936;2023-08-06T07:08:44;2.20;;;1.20;;
74383;SDS011;62824;52.994;-3.936;2023-08-06T07:11:10;2.63;;;1.40;;
74383;SDS011;62824;52.994;-3.936;2023-08-06T07:13:36;3.20;;;1.67;;
74383;SDS011;62824;52.994;-3.936;2023-08-06T07:16:02;2.42;;;1.65;;
74383;SDS011;62824;52.994;-3.936;2023-08-06T07:18:28;2.38;;;1.58;;
74383;SDS011;62824;52.994;-3.936;2023-08-06T07:20:54;1.95;;;1.60;;
74383;SDS011;62824;52.994;-3.936;2023-08-06T07:23:21;1.98;;;1.00;;
74383;SDS011;62824;52.994;-3.936;2023-08-06T07:25:48;2.50;;;1.05;;
74383;SDS011;62824;52.994;-3.936;2023-08-06T07:28:14;1.52;;;1.20;;
74383;SDS011;62824;52.994;-3.936;2023-08-06T07:30:40;3.65;;;1.10;;
74383;SDS011;62824;52.994;-3.936;2023-08-06T07:33:06;1.33;;;0.90;;
74383;SDS011;62824;52.994;-3.936;2023-08-06T07:35:32;2.22;;;0.95;;
74383;SDS011;62824;52.994;-3.936;2023-08-06T07:37:58;2.20;;;1.13;;
74383;SDS011;62824;52.994;-3.936;2023-08-06T07:40:24;3.25;;;1.13;;
74383;SDS011;62824;52.994;-3.936;2023-08-06T07:42:50;2.10;;;0.90;;
74383;SDS011;62824;52.994;-3.936;2023-08-06T07:45:16;2.63;;;1.20;;
74383;SDS011;62824;52.994;-3.936;2023-08-06T07:47:42;1.60;;;0.95;;
74383;SDS011;62824;52.994;-3.936;2023-08-06T07:50:08;3.55;;;1.20;;
74383;SDS011;62824;52.994;-3.936;2023-08-06T07:52:34;3.67;;;1.20;;
74383;SDS011;62824;52.994;-3.936;2023-08-06T07:55:00;2.08;;;1.00;;
74383;SDS011;62824;52.994;-3.936;2023-08-06T07:57:30;3.25;;;1.40;;
74383;SDS011;62824;52.994;-3.936;2023-08-06T07:59:56;2.10;;;0.95;;
74383;SDS011;62824;52.994;-3.936;2023-08-06T08:02:22;1.40;;;1.02;;
74383;SDS011;62824;52.994;-3.936;2023-08-06T08:04:48;1.80;;;1.15;;
74383;SDS011;62824;52.994;-3.936;2023-08-06T08:07:14;3.10;;;1.48;;
74383;SDS011;62824;52.994;-3.936;2023-08-06T08:09:40;1.58;;;1.10;;
74383;SDS011;62824;52.994;-3.936;2023-08-06T08:12:06;2.00;;;0.95;;
74383;SDS011;62824;52.994;-3.936;2023-08-06T08:14:32;0.60;;;0.60;;
74383;SDS011;62824;52.994;-3.936;2023-08-06T08:17:02;1.05;;;0.80;;
74383;SDS011;62824;52.994;-3.936;2023-08-06T08:19:29;0.73;;;0.60;;
74383;SDS011;62824;52.994;-3.936;2023-08-06T08:21:55;0.93;;;0.70;;
74383;SDS011;62824;52.994;-3.936;2023-08-06T08:24:21;2.67;;;1.05;;
74383;SDS011;62824;52.994;-3.936;2023-08-06T08:26:49;1.67;;;0.93;;
74383;SDS011;62824;52.994;-3.936;2023-08-06T08:29:21;1.13;;;0.88;;
74383;SDS011;62824;52.994;-3.936;2023-08-06T08:31:48;1.55;;;0.75;;
74383;SDS011;62824;52.994;-3.936;2023-08-06T08:34:18;0.82;;;0.80;;
74383;SDS011;62824;52.994;-3.936;2023-08-06T08:36:44;0.95;;;0.75;;
74383;SDS011;62824;52.994;-3.936;2023-08-06T08:39:12;1.95;;;0.95;;
74383;SDS011;62824;52.994;-3.936;2023-08-06T08:41:39;1.08;;;0.60;;
74383;SDS011;62824;52.994;-3.936;2023-08-06T08:44:05;0.70;;;0.70;;
74383;SDS011;62824;52.994;-3.936;2023-08-06T08:46:38;1.73;;;0.70;;
74383;SDS011;62824;52.994;-3.936;2023-08-06T08:49:06;0.70;;;0.60;;
74383;SDS011;62824;52.994;-3.936;2023-08-06T08:51:33;1.75;;;0.60;;
74383;SDS011;62824;52.994;-3.936;2023-08-06T08:54:01;2.67;;;0.60;;
74383;SDS011;62824;52.994;-3.936;2023-08-06T08:56:28;0.88;;;0.70;;
74383;SDS011;62824;52.994;-3.936;2023-08-06T08:58:54;1.70;;;0.82;;
74383;SDS011;62824;52.994;-3.936;2023-08-06T09:01:21;1.80;;;1.10;;
74383;SDS011;62824;52.994;-3.936;2023-08-06T09:03:47;1.38;;;0.80;;
74383;SDS011;62824;52.994;-3.936;2023-08-06T09:06:13;3.75;;;1.23;;
74383;SDS011;62824;52.994;-3.936;2023-08-06T09:08:48;1.27;;;0.70;;
74383;SDS011;62824;52.994;-3.936;2023-08-06T09:11:18;1.55;;;0.80;;
74383;SDS011;62824;52.994;-3.936;2023-08-06T09:13:46;3.80;;;2.42;;
74383;SDS011;62824;52.994;-3.936;2023-08-06T09:16:12;0.95;;;0.60;;
74383;SDS011;62824;52.994;-3.936;2023-08-06T09:18:38;2.58;;;0.70;;
74383;SDS011;62824;52.994;-3.936;2023-08-06T09:21:04;1.17;;;0.70;;
74383;SDS011;62824;52.994;-3.936;2023-08-06T09:23:31;0.73;;;0.73;;
74383;SDS011;62824;52.994;-3.936;2023-08-06T09:25:58;1.63;;;0.50;;
74383;SDS011;62824;52.994;-3.936;2023-08-06T09:28:29;2.03;;;0.90;;
74383;SDS011;62824;52.994;-3.936;2023-08-06T09:31:04;3.22;;;0.93;;
74383;SDS011;62824;52.994;-3.936;2023-08-06T09:33:29;0.60;;;0.60;;
74383;SDS011;62824;52.994;-3.936;2023-08-06T09:35:55;1.02;;;0.70;;
74383;SDS011;62824;52.994;-3.936;2023-08-06T09:38:21;0.82;;;0.75;;
74383;SDS011;62824;52.994;-3.936;2023-08-06T09:40:47;1.17;;;0.77;;
74383;SDS011;62824;52.994;-3.936;2023-08-06T09:43:13;1.38;;;0.60;;
74383;SDS011;62824;52.994;-3.936;2023-08-06T09:45:39;1.95;;;0.80;;
74383;SDS011;62824;52.994;-3.936;2023-08-06T09:48:05;1.20;;;0.80;;
74383;SDS011;62824;52.994;-3.936;2023-08-06T09:50:36;0.73;;;0.55;;
74383;SDS011;62824;52.994;-3.936;2023-08-06T09:53:06;0.65;;;0.65;;
74383;SDS011;62824;52.994;-3.936;2023-08-06T09:55:36;0.60;;;0.40;;
74383;SDS011;62824;52.994;-3.936;2023-08-06T09:58:02;1.33;;;0.70;;
74383;SDS011;62824;52.994;-3.936;2023-08-06T10:00:28;0.85;;;0.50;;
74383;SDS011;62824;52.994;-3.936;2023-08-06T10:02:59;0.70;;;0.70;;
74383;SDS011;62824;52.994;-3.936;2023-08-06T10:05:25;0.50;;;0.50;;
74383;SDS011;62824;52.994;-3.936;2023-08-06T10:07:52;0.65;;;0.50;;
74383;SDS011;62824;52.994;-3.936;2023-08-06T10:10:18;0.73;;;0.70;;
74383;SDS011;62824;52.994;-3.936;2023-08-06T10:12:46;0.88;;;0.80;;
74383;SDS011;62824;52.994;-3.936;2023-08-06T10:15:20;0.40;;;0.40;;
74383;SDS011;62824;52.994;-3.936;2023-08-06T10:17:50;1.80;;;0.77;;
74383;SDS011;62824;52.994;-3.936;2023-08-06T10:20:19;0.55;;;0.55;;
74383;SDS011;62824;52.994;-3.936;2023-08-06T10:22:59;0.98;;;0.68;;
74383;SDS011;62824;52.994;-3.936;2023-08-06T10:25:33;1.98;;;1.00;;
74383;SDS011;62824;52.994;-3.936;2023-08-06T10:28:00;0.93;;;0.57;;
74383;SDS011;62824;52.994;-3.936;2023-08-06T10:30:32;0.50;;;0.50;;
74383;SDS011;62824;52.994;-3.936;2023-08-06T10:32:59;1.50;;;0.80;;
74383;SDS011;62824;52.994;-3.936;2023-08-06T10:35:29;0.40;;;0.40;;
74383;SDS011;62824;52.994;-3.936;2023-08-06T10:38:15;0.75;;;0.70;;
74383;SDS011;62824;52.994;-3.936;2023-08-06T10:40:49;0.90;;;0.90;;
74383;SDS011;62824;52.994;-3.936;2023-08-06T10:43:36;1.40;;;1.20;;
74383;SDS011;62824;52.994;-3.936;2023-08-06T10:46:05;1.73;;;0.90;;
74383;SDS011;62824;52.994;-3.936;2023-08-06T10:48:36;1.65;;;0.90;;
74383;SDS011;62824;52.994;-3.936;2023-08-06T10:51:09;1.33;;;1.20;;
74383;SDS011;62824;52.994;-3.936;2023-08-06T10:53:36;2.33;;;1.00;;
74383;SDS011;62824;52.994;-3.936;2023-08-06T10:56:11;2.03;;;1.00;;
74383;SDS011;62824;52.994;-3.936;2023-08-06T10:58:38;1.75;;;0.82;;
74383;SDS011;62824;52.994;-3.936;2023-08-06T11:01:03;1.95;;;1.10;;
74383;SDS011;62824;52.994;-3.936;2023-08-06T11:03:30;3.70;;;0.90;;
74383;SDS011;62824;52.994;-3.936;2023-08-06T11:05:58;3.55;;;1.10;;
74383;SDS011;62824;52.994;-3.936;2023-08-06T11:08:27;2.35;;;1.00;;
74383;SDS011;62824;52.994;-3.936;2023-08-06T11:10:54;3.05;;;1.95;;
74383;SDS011;62824;52.994;-3.936;2023-08-06T11:13:20;2.63;;;1.85;;
74383;SDS011;62824;52.994;-3.936;2023-08-06T11:15:46;2.47;;;1.95;;
74383;SDS011;62824;52.994;-3.936;2023-08-06T11:18:12;2.90;;;1.70;;
74383;SDS011;62824;52.994;-3.936;2023-08-06T11:20:38;1.42;;;1.10;;
74383;SDS011;62824;52.994;-3.936;2023-08-06T11:23:04;2.10;;;1.55;;
74383;SDS011;62824;52.994;-3.936;2023-08-06T11:25:31;3.15;;;1.40;;
74383;SDS011;62824;52.994;-3.936;2023-08-06T11:28:01;3.55;;;1.50;;
74383;SDS011;62824;52.994;-3.936;2023-08-06T11:30:27;3.13;;;1.40;;
74383;SDS011;62824;52.994;-3.936;2023-08-06T11:32:53;2.47;;;1.30;;
74383;SDS011;62824;52.994;-3.936;2023-08-06T11:35:18;2.53;;;1.38;;
74383;SDS011;62824;52.994;-3.936;2023-08-06T11:37:44;3.05;;;1.60;;
74383;SDS011;62824;52.994;-3.936;2023-08-06T11:40:11;1.52;;;1.00;;
74383;SDS011;62824;52.994;-3.936;2023-08-06T11:42:37;2.20;;;1.00;;
74383;SDS011;62824;52.994;-3.936;2023-08-06T11:45:03;2.35;;;1.30;;
74383;SDS011;62824;52.994;-3.936;2023-08-06T11:47:29;2.15;;;1.80;;
74383;SDS011;62824;52.994;-3.936;2023-08-06T11:49:55;2.75;;;2.40;;
74383;SDS011;62824;52.994;-3.936;2023-08-06T11:52:22;5.45;;;1.75;;
74383;SDS011;62824;52.994;-3.936;2023-08-06T11:57:50;4.40;;;1.57;;
74383;SDS011;62824;52.994;-3.936;2023-08-06T12:00:16;2.10;;;1.23;;
74383;SDS011;62824;52.994;-3.936;2023-08-06T12:02:50;1.80;;;1.30;;
74383;SDS011;62824;52.994;-3.936;2023-08-06T12:05:18;2.22;;;0.90;;
74383;SDS011;62824;52.994;-3.936;2023-08-06T12:10:26;2.65;;;1.40;;
74383;SDS011;62824;52.994;-3.936;2023-08-06T12:12:54;2.60;;;1.25;;
74383;SDS011;62824;52.994;-3.936;2023-08-06T12:15:20;1.55;;;1.30;;
74383;SDS011;62824;52.994;-3.936;2023-08-06T12:17:47;1.02;;;0.90;;
74383;SDS011;62824;52.994;-3.936;2023-08-06T12:20:13;3.03;;;1.00;;
74383;SDS011;62824;52.994;-3.936;2023-08-06T12:22:38;2.47;;;1.13;;
74383;SDS011;62824;52.994;-3.936;2023-08-06T12:25:11;2.72;;;1.00;;
74383;SDS011;62824;52.994;-3.936;2023-08-06T12:27:37;1.55;;;0.93;;
74383;SDS011;62824;52.994;-3.936;2023-08-06T12:30:07;1.58;;;1.00;;
74383;SDS011;62824;52.994;-3.936;2023-08-06T12:32:42;1.60;;;1.20;;
74383;SDS011;62824;52.994;-3.936;2023-08-06T12:35:07;3.15;;;1.20;;
74383;SDS011;62824;52.994;-3.936;2023-08-06T12:37:34;1.67;;;1.10;;
74383;SDS011;62824;52.994;-3.936;2023-08-06T12:40:00;1.40;;;1.00;;
74383;SDS011;62824;52.994;-3.936;2023-08-06T12:42:26;1.42;;;1.15;;
74383;SDS011;62824;52.994;-3.936;2023-08-06T12:44:52;2.13;;;1.20;;
74383;SDS011;62824;52.994;-3.936;2023-08-06T12:47:18;1.15;;;0.98;;
74383;SDS011;62824;52.994;-3.936;2023-08-06T12:49:45;2.78;;;1.15;;
74383;SDS011;62824;52.994;-3.936;2023-08-06T12:52:11;1.90;;;0.93;;
74383;SDS011;62824;52.994;-3.936;2023-08-06T12:54:40;1.20;;;0.93;;
74383;SDS011;62824;52.994;-3.936;2023-08-06T12:57:05;2.92;;;1.23;;
74383;SDS011;62824;52.994;-3.936;2023-08-06T12:59:32;2.35;;;1.23;;
74383;SDS011;62824;52.994;-3.936;2023-08-06T13:01:58;1.92;;;1.00;;
74383;SDS011;62824;52.994;-3.936;2023-08-06T13:04:24;2.88;;;1.42;;
74383;SDS011;62824;52.994;-3.936;2023-08-06T13:06:50;2.08;;;1.30;;
74383;SDS011;62824;52.994;-3.936;2023-08-06T13:09:16;1.42;;;0.90;;
74383;SDS011;62824;52.994;-3.936;2023-08-06T13:11:49;2.80;;;1.42;;
74383;SDS011;62824;52.994;-3.936;2023-08-06T13:14:15;1.50;;;1.10;;
74383;SDS011;62824;52.994;-3.936;2023-08-06T13:16:42;2.20;;;1.17;;
74383;SDS011;62824;52.994;-3.936;2023-08-06T13:19:09;1.25;;;0.90;;
74383;SDS011;62824;52.994;-3.936;2023-08-06T13:22:21;2.80;;;1.35;;
74383;SDS011;62824;52.994;-3.936;2023-08-06T13:24:27;1.33;;;0.90;;
74383;SDS011;62824;52.994;-3.936;2023-08-06T13:26:53;1.60;;;1.13;;
74383;SDS011;62824;52.994;-3.936;2023-08-06T13:29:19;2.10;;;1.10;;
74383;SDS011;62824;52.994;-3.936;2023-08-06T13:31:45;2.80;;;1.60;;
74383;SDS011;62824;52.994;-3.936;2023-08-06T13:34:11;1.33;;;1.13;;
74383;SDS011;62824;52.994;-3.936;2023-08-06T13:36:37;2.40;;;1.30;;
74383;SDS011;62824;52.994;-3.936;2023-08-06T13:39:03;2.85;;;1.60;;
74383;SDS011;62824;52.994;-3.936;2023-08-06T13:41:30;2.05;;;1.40;;
74383;SDS011;62824;52.994;-3.936;2023-08-06T13:43:56;1.58;;;1.38;;
74383;SDS011;62824;52.994;-3.936;2023-08-06T13:46:22;1.90;;;1.17;;
74383;SDS011;62824;52.994;-3.936;2023-08-06T13:48:48;1.60;;;1.20;;
74383;SDS011;62824;52.994;-3.936;2023-08-06T13:51:17;1.63;;;1.00;;
74383;SDS011;62824;52.994;-3.936;2023-08-06T13:53:43;1.20;;;1.02;;
74383;SDS011;62824;52.994;-3.936;2023-08-06T13:56:09;2.65;;;1.25;;
74383;SDS011;62824;52.994;-3.936;2023-08-06T13:58:36;1.83;;;1.30;;
74383;SDS011;62824;52.994;-3.936;2023-08-06T14:01:02;2.88;;;1.52;;
74383;SDS011;62824;52.994;-3.936;2023-08-06T14:03:28;2.72;;;1.45;;
74383;SDS011;62824;52.994;-3.936;2023-08-06T14:05:54;1.98;;;1.02;;
74383;SDS011;62824;52.994;-3.936;2023-08-06T14:08:23;1.90;;;1.10;;
74383;SDS011;62824;52.994;-3.936;2023-08-06T14:10:50;2.15;;;1.20;;
74383;SDS011;62824;52.994;-3.936;2023-08-06T14:13:16;3.15;;;1.38;;
74383;SDS011;62824;52.994;-3.936;2023-08-06T14:15:42;3.67;;;1.10;;
74383;SDS011;62824;52.994;-3.936;2023-08-06T14:18:12;2.40;;;1.40;;
74383;SDS011;62824;52.994;-3.936;2023-08-06T14:20:39;3.20;;;1.27;;
74383;SDS011;62824;52.994;-3.936;2023-08-06T14:23:05;1.50;;;1.10;;
74383;SDS011;62824;52.994;-3.936;2023-08-06T14:25:31;2.45;;;1.10;;
74383;SDS011;62824;52.994;-3.936;2023-08-06T14:27:57;3.47;;;1.20;;
74383;SDS011;62824;52.994;-3.936;2023-08-06T14:30:23;1.75;;;1.10;;
74383;SDS011;62824;52.994;-3.936;2023-08-06T14:32:48;3.00;;;1.30;;
74383;SDS011;62824;52.994;-3.936;2023-08-06T14:35:14;4.75;;;1.95;;
74383;SDS011;62824;52.994;-3.936;2023-08-06T14:37:40;2.60;;;1.83;;
74383;SDS011;62824;52.994;-3.936;2023-08-06T14:40:06;3.10;;;1.70;;